sensor_id;sensor_type;location;lat;lon;timestamp;temperature;humidity
26964;DHT22;14521;48.148;-1.656;2024-01-11T00:01:46;17.20;72.10
26964;DHT22;14521;48.148;-1.656;2024-01-11T00:05:09;17.20;72.10
26964;DHT22;14521;48.148;-1.656;2024-01-11T00:08:31;17.20;72.00
26964;DHT22;14521;48.148;-1.656;2024-01-11T00:11:54;17.20;72.10
26964;DHT22;14521;48.148;-1.656;2024-01-11T00:15:16;17.20;72.00
26964;DHT22;14521;48.148;-1.656;2024-01-11T00:18:38;17.20;72.00
26964;DHT22;14521;48.148;-1.656;2024-01-11T00:22:01;17.20;71.90
26964;DHT22;14521;48.148;-1.656;2024-01-11T00:25:23;17.20;72.10
26964;DHT22;14521;48.148;-1.656;2024-01-11T00:28:46;17.20;72.10
26964;DHT22;14521;48.148;-1.656;2024-01-11T00:32:08;17.20;72.10
26964;DHT22;14521;48.148;-1.656;2024-01-11T00:35:30;17.20;72.10
26964;DHT22;14521;48.148;-1.656;2024-01-11T00:38:53;17.20;72.10
26964;DHT22;14521;48.148;-1.656;2024-01-11T00:42:15;17.20;72.10
26964;DHT22;14521;48.148;-1.656;2024-01-11T00:45:37;17.20;72.00
26964;DHT22;14521;48.148;-1.656;2024-01-11T00:49:00;17.20;72.10
26964;DHT22;14521;48.148;-1.656;2024-01-11T00:52:23;17.20;72.10
26964;DHT22;14521;48.148;-1.656;2024-01-11T00:55:45;17.20;72.10
26964;DHT22;14521;48.148;-1.656;2024-01-11T00:59:07;17.20;72.20
26964;DHT22;14521;48.148;-1.656;2024-01-11T01:02:30;17.20;72.30
26964;DHT22;14521;48.148;-1.656;2024-01-11T01:05:52;17.20;72.20
26964;DHT22;14521;48.148;-1.656;2024-01-11T01:09:15;17.20;72.10
26964;DHT22;14521;48.148;-1.656;2024-01-11T01:12:37;17.20;72.10
26964;DHT22;14521;48.148;-1.656;2024-01-11T01:15:59;17.20;72.00
26964;DHT22;14521;48.148;-1.656;2024-01-11T01:19:21;17.20;72.00
26964;DHT22;14521;48.148;-1.656;2024-01-11T01:22:44;17.20;72.00
26964;DHT22;14521;48.148;-1.656;2024-01-11T01:26:06;17.20;72.00
26964;DHT22;14521;48.148;-1.656;2024-01-11T01:29:29;17.20;72.00
26964;DHT22;14521;48.148;-1.656;2024-01-11T01:32:51;17.20;71.90
26964;DHT22;14521;48.148;-1.656;2024-01-11T01:36:14;17.20;71.90
26964;DHT22;14521;48.148;-1.656;2024-01-11T01:39:39;17.20;71.80
26964;DHT22;14521;48.148;-1.656;2024-01-11T01:43:06;17.20;71.80
26964;DHT22;14521;48.148;-1.656;2024-01-11T01:46:28;17.20;71.80
26964;DHT22;14521;48.148;-1.656;2024-01-11T01:49:51;17.20;71.80
26964;DHT22;14521;48.148;-1.656;2024-01-11T01:53:14;17.20;71.90
26964;DHT22;14521;48.148;-1.656;2024-01-11T01:56:36;17.10;71.70
26964;DHT22;14521;48.148;-1.656;2024-01-11T01:59:59;17.20;71.80
26964;DHT22;14521;48.148;-1.656;2024-01-11T02:03:24;17.20;71.80
26964;DHT22;14521;48.148;-1.656;2024-01-11T02:06:51;17.20;71.70
26964;DHT22;14521;48.148;-1.656;2024-01-11T02:10:16;17.20;71.80
26964;DHT22;14521;48.148;-1.656;2024-01-11T02:13:39;17.20;71.60
26964;DHT22;14521;48.148;-1.656;2024-01-11T02:17:01;17.20;71.60
26964;DHT22;14521;48.148;-1.656;2024-01-11T02:20:24;17.20;71.60
26964;DHT22;14521;48.148;-1.656;2024-01-11T02:24:13;17.20;71.60
26964;DHT22;14521;48.148;-1.656;2024-01-11T02:27:46;17.10;71.60
26964;DHT22;14521;48.148;-1.656;2024-01-11T02:31:08;17.10;71.60
26964;DHT22;14521;48.148;-1.656;2024-01-11T02:34:33;17.10;71.60
26964;DHT22;14521;48.148;-1.656;2024-01-11T02:37:56;17.10;71.70
26964;DHT22;14521;48.148;-1.656;2024-01-11T02:41:19;17.10;71.60
26964;DHT22;14521;48.148;-1.656;2024-01-11T02:44:42;17.10;71.50
26964;DHT22;14521;48.148;-1.656;2024-01-11T02:48:05;17.10;71.60
26964;DHT22;14521;48.148;-1.656;2024-01-11T02:51:27;17.10;71.40
26964;DHT22;14521;48.148;-1.656;2024-01-11T02:54:49;17.10;71.40
26964;DHT22;14521;48.148;-1.656;2024-01-11T02:58:12;17.10;71.50
26964;DHT22;14521;48.148;-1.656;2024-01-11T03:01:34;17.10;71.40
26964;DHT22;14521;48.148;-1.656;2024-01-11T03:04:57;17.10;71.40
26964;DHT22;14521;48.148;-1.656;2024-01-11T03:08:19;17.10;71.40
26964;DHT22;14521;48.148;-1.656;2024-01-11T03:11:42;17.10;71.40
26964;DHT22;14521;48.148;-1.656;2024-01-11T03:15:04;17.10;71.40
26964;DHT22;14521;48.148;-1.656;2024-01-11T03:18:26;17.10;71.30
26964;DHT22;14521;48.148;-1.656;2024-01-11T03:21:50;17.10;71.40
26964;DHT22;14521;48.148;-1.656;2024-01-11T03:25:12;17.10;71.30
26964;DHT22;14521;48.148;-1.656;2024-01-11T03:28:34;17.10;71.40
26964;DHT22;14521;48.148;-1.656;2024-01-11T03:31:57;17.10;71.30
26964;DHT22;14521;48.148;-1.656;2024-01-11T03:35:20;17.10;71.30
26964;DHT22;14521;48.148;-1.656;2024-01-11T03:38:43;17.10;71.30
26964;DHT22;14521;48.148;-1.656;2024-01-11T03:42:05;17.10;71.30
26964;DHT22;14521;48.148;-1.656;2024-01-11T03:45:28;17.10;71.40
26964;DHT22;14521;48.148;-1.656;2024-01-11T03:48:50;17.10;71.40
26964;DHT22;14521;48.148;-1.656;2024-01-11T03:52:13;17.10;71.30
26964;DHT22;14521;48.148;-1.656;2024-01-11T03:55:35;17.10;72.10
26964;DHT22;14521;48.148;-1.656;2024-01-11T03:58:57;17.10;71.30
26964;DHT22;14521;48.148;-1.656;2024-01-11T04:02:19;17.10;71.30
26964;DHT22;14521;48.148;-1.656;2024-01-11T04:05:42;17.10;71.30
26964;DHT22;14521;48.148;-1.656;2024-01-11T04:09:04;17.10;71.40
26964;DHT22;14521;48.148;-1.656;2024-01-11T04:12:26;17.10;71.40
26964;DHT22;14521;48.148;-1.656;2024-01-11T04:15:49;17.10;71.40
26964;DHT22;14521;48.148;-1.656;2024-01-11T04:19:11;17.10;71.20
26964;DHT22;14521;48.148;-1.656;2024-01-11T04:22:33;17.10;71.20
26964;DHT22;14521;48.148;-1.656;2024-01-11T04:25:56;17.10;71.20
26964;DHT22;14521;48.148;-1.656;2024-01-11T04:29:18;17.10;71.20
26964;DHT22;14521;48.148;-1.656;2024-01-11T04:32:41;17.10;71.10
26964;DHT22;14521;48.148;-1.656;2024-01-11T04:36:03;17.00;71.10
26964;DHT22;14521;48.148;-1.656;2024-01-11T04:39:26;17.00;71.10
26964;DHT22;14521;48.148;-1.656;2024-01-11T04:42:48;17.10;71.30
26964;DHT22;14521;48.148;-1.656;2024-01-11T04:46:16;17.00;71.10
26964;DHT22;14521;48.148;-1.656;2024-01-11T04:49:39;17.00;71.10
26964;DHT22;14521;48.148;-1.656;2024-01-11T04:53:01;17.00;71.10
26964;DHT22;14521;48.148;-1.656;2024-01-11T04:56:24;17.10;71.20
26964;DHT22;14521;48.148;-1.656;2024-01-11T04:59:46;17.10;71.10
26964;DHT22;14521;48.148;-1.656;2024-01-11T05:03:08;17.10;71.10
26964;DHT22;14521;48.148;-1.656;2024-01-11T05:06:31;17.00;70.90
26964;DHT22;14521;48.148;-1.656;2024-01-11T05:09:53;17.10;70.70
26964;DHT22;14521;48.148;-1.656;2024-01-11T05:13:17;17.10;70.80
26964;DHT22;14521;48.148;-1.656;2024-01-11T05:16:39;17.20;70.60
26964;DHT22;14521;48.148;-1.656;2024-01-11T05:20:02;17.20;70.60
26964;DHT22;14521;48.148;-1.656;2024-01-11T05:23:25;17.30;70.60
26964;DHT22;14521;48.148;-1.656;2024-01-11T05:26:47;17.30;71.30
26964;DHT22;14521;48.148;-1.656;2024-01-11T05:30:10;17.40;70.40
26964;DHT22;14521;48.148;-1.656;2024-01-11T05:33:33;17.40;70.40
26964;DHT22;14521;48.148;-1.656;2024-01-11T05:36:55;17.40;70.30
26964;DHT22;14521;48.148;-1.656;2024-01-11T05:40:20;17.50;70.40
26964;DHT22;14521;48.148;-1.656;2024-01-11T05:43:42;17.50;70.30
26964;DHT22;14521;48.148;-1.656;2024-01-11T05:47:05;17.60;70.30
26964;DHT22;14521;48.148;-1.656;2024-01-11T05:50:27;17.60;70.30
26964;DHT22;14521;48.148;-1.656;2024-01-11T05:53:49;17.60;70.40
26964;DHT22;14521;48.148;-1.656;2024-01-11T05:57:11;17.70;70.40
26964;DHT22;14521;48.148;-1.656;2024-01-11T06:00:34;17.70;70.40
26964;DHT22;14521;48.148;-1.656;2024-01-11T06:03:56;17.70;70.40
26964;DHT22;14521;48.148;-1.656;2024-01-11T06:07:18;17.70;70.60
26964;DHT22;14521;48.148;-1.656;2024-01-11T06:10:41;17.70;70.60
26964;DHT22;14521;48.148;-1.656;2024-01-11T06:14:03;17.70;70.60
26964;DHT22;14521;48.148;-1.656;2024-01-11T06:17:26;17.50;67.60
26964;DHT22;14521;48.148;-1.656;2024-01-11T06:20:48;17.70;69.70
26964;DHT22;14521;48.148;-1.656;2024-01-11T06:24:11;17.70;66.90
26964;DHT22;14521;48.148;-1.656;2024-01-11T06:27:33;17.50;69.70
26964;DHT22;14521;48.148;-1.656;2024-01-11T06:30:56;17.80;71.10
26964;DHT22;14521;48.148;-1.656;2024-01-11T06:34:18;18.00;72.90
26964;DHT22;14521;48.148;-1.656;2024-01-11T06:37:41;18.10;73.00
26964;DHT22;14521;48.148;-1.656;2024-01-11T06:41:03;18.10;73.10
26964;DHT22;14521;48.148;-1.656;2024-01-11T06:44:25;18.10;72.60
26964;DHT22;14521;48.148;-1.656;2024-01-11T06:47:48;18.20;72.00
26964;DHT22;14521;48.148;-1.656;2024-01-11T06:51:14;18.20;73.40
26964;DHT22;14521;48.148;-1.656;2024-01-11T06:54:37;18.30;73.10
26964;DHT22;14521;48.148;-1.656;2024-01-11T06:58:01;18.30;72.00
26964;DHT22;14521;48.148;-1.656;2024-01-11T07:01:24;18.30;72.90
26964;DHT22;14521;48.148;-1.656;2024-01-11T07:04:47;18.30;70.20
26964;DHT22;14521;48.148;-1.656;2024-01-11T07:08:09;18.30;71.60
26964;DHT22;14521;48.148;-1.656;2024-01-11T07:11:32;18.30;72.10
26964;DHT22;14521;48.148;-1.656;2024-01-11T07:14:54;18.40;72.50
26964;DHT22;14521;48.148;-1.656;2024-01-11T07:18:17;18.40;72.50
26964;DHT22;14521;48.148;-1.656;2024-01-11T07:21:39;18.30;71.40
26964;DHT22;14521;48.148;-1.656;2024-01-11T07:25:01;18.30;72.90
26964;DHT22;14521;48.148;-1.656;2024-01-11T07:28:24;18.30;72.00
26964;DHT22;14521;48.148;-1.656;2024-01-11T07:31:47;18.30;73.00
26964;DHT22;14521;48.148;-1.656;2024-01-11T07:35:10;17.90;68.20
26964;DHT22;14521;48.148;-1.656;2024-01-11T07:38:38;17.60;69.20
26964;DHT22;14521;48.148;-1.656;2024-01-11T07:42:01;17.40;69.70
26964;DHT22;14521;48.148;-1.656;2024-01-11T07:45:23;17.40;69.90
26964;DHT22;14521;48.148;-1.656;2024-01-11T07:48:45;17.30;70.00
26964;DHT22;14521;48.148;-1.656;2024-01-11T07:52:08;17.30;71.10
26964;DHT22;14521;48.148;-1.656;2024-01-11T07:55:30;17.50;70.90
26964;DHT22;14521;48.148;-1.656;2024-01-11T07:58:53;17.60;72.80
26964;DHT22;14521;48.148;-1.656;2024-01-11T08:02:15;17.70;71.60
26964;DHT22;14521;48.148;-1.656;2024-01-11T08:05:38;17.80;72.90
26964;DHT22;14521;48.148;-1.656;2024-01-11T08:09:00;17.80;71.90
26964;DHT22;14521;48.148;-1.656;2024-01-11T08:12:23;17.90;72.40
26964;DHT22;14521;48.148;-1.656;2024-01-11T08:15:45;17.90;72.70
26964;DHT22;14521;48.148;-1.656;2024-01-11T08:19:07;17.90;72.70
26964;DHT22;14521;48.148;-1.656;2024-01-11T08:22:32;17.80;72.70
26964;DHT22;14521;48.148;-1.656;2024-01-11T08:25:56;17.80;71.60
26964;DHT22;14521;48.148;-1.656;2024-01-11T08:29:18;17.90;71.90
26964;DHT22;14521;48.148;-1.656;2024-01-11T08:32:44;17.90;71.70
26964;DHT22;14521;48.148;-1.656;2024-01-11T08:36:06;17.90;71.40
26964;DHT22;14521;48.148;-1.656;2024-01-11T08:39:29;17.80;71.50
26964;DHT22;14521;48.148;-1.656;2024-01-11T08:42:52;17.80;71.90
26964;DHT22;14521;48.148;-1.656;2024-01-11T08:46:23;17.80;72.40
26964;DHT22;14521;48.148;-1.656;2024-01-11T08:49:46;17.80;72.70
26964;DHT22;14521;48.148;-1.656;2024-01-11T08:53:08;17.90;72.20
26964;DHT22;14521;48.148;-1.656;2024-01-11T08:56:31;18.00;72.00
26964;DHT22;14521;48.148;-1.656;2024-01-11T08:59:54;18.00;71.10
26964;DHT22;14521;48.148;-1.656;2024-01-11T09:03:16;18.00;71.00
26964;DHT22;14521;48.148;-1.656;2024-01-11T09:06:39;17.80;69.30
26964;DHT22;14521;48.148;-1.656;2024-01-11T09:10:02;17.60;69.70
26964;DHT22;14521;48.148;-1.656;2024-01-11T09:13:25;17.60;69.90
26964;DHT22;14521;48.148;-1.656;2024-01-11T09:16:50;17.50;69.80
26964;DHT22;14521;48.148;-1.656;2024-01-11T09:20:13;17.60;69.90
26964;DHT22;14521;48.148;-1.656;2024-01-11T09:23:36;17.50;69.80
26964;DHT22;14521;48.148;-1.656;2024-01-11T09:26:58;17.60;69.80
26964;DHT22;14521;48.148;-1.656;2024-01-11T09:30:21;17.60;70.60
26964;DHT22;14521;48.148;-1.656;2024-01-11T09:33:43;17.70;70.40
26964;DHT22;14521;48.148;-1.656;2024-01-11T09:37:07;17.70;71.50
26964;DHT22;14521;48.148;-1.656;2024-01-11T09:40:29;17.70;71.90
26964;DHT22;14521;48.148;-1.656;2024-01-11T09:43:54;17.70;71.90
26964;DHT22;14521;48.148;-1.656;2024-01-11T09:47:16;17.80;71.80
26964;DHT22;14521;48.148;-1.656;2024-01-11T09:50:40;17.70;70.60
26964;DHT22;14521;48.148;-1.656;2024-01-11T09:54:03;17.90;71.30
26964;DHT22;14521;48.148;-1.656;2024-01-11T09:57:29;17.90;71.40
26964;DHT22;14521;48.148;-1.656;2024-01-11T10:00:54;17.90;71.80
26964;DHT22;14521;48.148;-1.656;2024-01-11T10:04:17;17.90;71.60
26964;DHT22;14521;48.148;-1.656;2024-01-11T10:07:40;18.00;71.40
26964;DHT22;14521;48.148;-1.656;2024-01-11T10:11:03;18.00;71.40
26964;DHT22;14521;48.148;-1.656;2024-01-11T10:14:26;18.00;70.40
26964;DHT22;14521;48.148;-1.656;2024-01-11T10:17:49;18.00;70.60
26964;DHT22;14521;48.148;-1.656;2024-01-11T10:21:11;18.00;70.80
26964;DHT22;14521;48.148;-1.656;2024-01-11T10:24:33;17.80;69.20
26964;DHT22;14521;48.148;-1.656;2024-01-11T10:27:58;17.90;75.40
26964;DHT22;14521;48.148;-1.656;2024-01-11T10:31:22;17.80;75.20
26964;DHT22;14521;48.148;-1.656;2024-01-11T10:34:49;17.80;74.60
26964;DHT22;14521;48.148;-1.656;2024-01-11T10:38:11;17.80;76.50
26964;DHT22;14521;48.148;-1.656;2024-01-11T10:41:47;17.70;77.00
26964;DHT22;14521;48.148;-1.656;2024-01-11T10:45:17;17.70;76.00
26964;DHT22;14521;48.148;-1.656;2024-01-11T10:48:43;17.80;73.70
26964;DHT22;14521;48.148;-1.656;2024-01-11T10:52:08;17.90;75.50
26964;DHT22;14521;48.148;-1.656;2024-01-11T10:55:33;18.00;74.80
26964;DHT22;14521;48.148;-1.656;2024-01-11T10:58:56;18.00;75.80
26964;DHT22;14521;48.148;-1.656;2024-01-11T11:02:20;18.00;74.90
26964;DHT22;14521;48.148;-1.656;2024-01-11T11:05:43;18.10;73.70
26964;DHT22;14521;48.148;-1.656;2024-01-11T11:09:07;18.20;74.00
26964;DHT22;14521;48.148;-1.656;2024-01-11T11:12:32;18.30;74.60
26964;DHT22;14521;48.148;-1.656;2024-01-11T11:15:55;18.40;73.00
26964;DHT22;14521;48.148;-1.656;2024-01-11T11:19:24;18.50;71.40
26964;DHT22;14521;48.148;-1.656;2024-01-11T11:23:06;18.60;73.30
26964;DHT22;14521;48.148;-1.656;2024-01-11T11:26:32;18.70;72.50
26964;DHT22;14521;48.148;-1.656;2024-01-11T11:29:55;18.80;72.80
26964;DHT22;14521;48.148;-1.656;2024-01-11T11:33:23;18.80;72.90
26964;DHT22;14521;48.148;-1.656;2024-01-11T11:36:46;18.80;72.20
26964;DHT22;14521;48.148;-1.656;2024-01-11T11:40:09;18.80;74.20
26964;DHT22;14521;48.148;-1.656;2024-01-11T11:43:34;18.90;75.00
26964;DHT22;14521;48.148;-1.656;2024-01-11T11:47:22;18.90;74.80
26964;DHT22;14521;48.148;-1.656;2024-01-11T11:50:45;19.00;75.10
26964;DHT22;14521;48.148;-1.656;2024-01-11T11:54:08;18.90;74.70
26964;DHT22;14521;48.148;-1.656;2024-01-11T11:57:37;19.00;74.30
26964;DHT22;14521;48.148;-1.656;2024-01-11T12:01:00;19.00;74.80
26964;DHT22;14521;48.148;-1.656;2024-01-11T12:04:24;18.80;74.60
26964;DHT22;14521;48.148;-1.656;2024-01-11T12:07:47;18.70;74.70
26964;DHT22;14521;48.148;-1.656;2024-01-11T12:11:12;18.60;74.20
26964;DHT22;14521;48.148;-1.656;2024-01-11T12:14:35;18.60;74.40
26964;DHT22;14521;48.148;-1.656;2024-01-11T12:17:58;18.50;75.50
26964;DHT22;14521;48.148;-1.656;2024-01-11T12:21:23;18.40;70.70
26964;DHT22;14521;48.148;-1.656;2024-01-11T12:24:46;18.20;71.70
26964;DHT22;14521;48.148;-1.656;2024-01-11T12:28:09;16.80;61.40
26964;DHT22;14521;48.148;-1.656;2024-01-11T12:31:32;16.70;71.70
26964;DHT22;14521;48.148;-1.656;2024-01-11T12:34:54;17.10;72.80
26964;DHT22;14521;48.148;-1.656;2024-01-11T12:38:17;17.50;72.20
26964;DHT22;14521;48.148;-1.656;2024-01-11T12:41:40;17.70;71.70
26964;DHT22;14521;48.148;-1.656;2024-01-11T12:45:02;18.00;71.10
26964;DHT22;14521;48.148;-1.656;2024-01-11T12:48:25;18.20;70.40
26964;DHT22;14521;48.148;-1.656;2024-01-11T12:51:49;18.40;69.80
26964;DHT22;14521;48.148;-1.656;2024-01-11T12:55:18;18.50;69.40
26964;DHT22;14521;48.148;-1.656;2024-01-11T12:58:42;18.60;69.40
26964;DHT22;14521;48.148;-1.656;2024-01-11T13:02:05;18.60;69.10
26964;DHT22;14521;48.148;-1.656;2024-01-11T13:05:27;18.60;68.80
26964;DHT22;14521;48.148;-1.656;2024-01-11T13:08:50;18.60;69.10
26964;DHT22;14521;48.148;-1.656;2024-01-11T13:12:12;18.50;69.20
26964;DHT22;14521;48.148;-1.656;2024-01-11T13:15:35;18.70;71.60
26964;DHT22;14521;48.148;-1.656;2024-01-11T13:18:58;18.90;71.40
26964;DHT22;14521;48.148;-1.656;2024-01-11T13:22:20;19.10;70.60
26964;DHT22;14521;48.148;-1.656;2024-01-11T13:25:43;19.20;70.50
26964;DHT22;14521;48.148;-1.656;2024-01-11T13:29:06;19.30;69.60
26964;DHT22;14521;48.148;-1.656;2024-01-11T13:32:29;19.30;70.10
26964;DHT22;14521;48.148;-1.656;2024-01-11T13:35:51;19.30;69.90
26964;DHT22;14521;48.148;-1.656;2024-01-11T13:39:14;19.20;70.10
26964;DHT22;14521;48.148;-1.656;2024-01-11T13:42:40;19.00;70.40
26964;DHT22;14521;48.148;-1.656;2024-01-11T13:46:02;18.90;71.40
26964;DHT22;14521;48.148;-1.656;2024-01-11T13:49:27;18.80;71.50
26964;DHT22;14521;48.148;-1.656;2024-01-11T13:52:50;18.70;71.40
26964;DHT22;14521;48.148;-1.656;2024-01-11T13:56:15;18.60;71.90
26964;DHT22;14521;48.148;-1.656;2024-01-11T13:59:37;18.50;72.10
26964;DHT22;14521;48.148;-1.656;2024-01-11T14:02:59;18.50;71.80
26964;DHT22;14521;48.148;-1.656;2024-01-11T14:06:22;18.50;72.10
26964;DHT22;14521;48.148;-1.656;2024-01-11T14:09:44;18.40;72.20
26964;DHT22;14521;48.148;-1.656;2024-01-11T14:13:06;18.40;72.40
26964;DHT22;14521;48.148;-1.656;2024-01-11T14:16:29;18.40;72.40
26964;DHT22;14521;48.148;-1.656;2024-01-11T14:19:51;18.30;72.40
26964;DHT22;14521;48.148;-1.656;2024-01-11T14:23:13;18.30;72.50
26964;DHT22;14521;48.148;-1.656;2024-01-11T14:26:36;18.30;72.60
26964;DHT22;14521;48.148;-1.656;2024-01-11T14:29:58;18.30;72.80
26964;DHT22;14521;48.148;-1.656;2024-01-11T14:33:20;18.30;72.80
26964;DHT22;14521;48.148;-1.656;2024-01-11T14:37:01;18.20;72.70
26964;DHT22;14521;48.148;-1.656;2024-01-11T14:40:24;18.20;72.90
26964;DHT22;14521;48.148;-1.656;2024-01-11T14:43:49;18.20;72.80
26964;DHT22;14521;48.148;-1.656;2024-01-11T14:47:11;18.20;73.00
26964;DHT22;14521;48.148;-1.656;2024-01-11T14:50:33;18.20;73.00
26964;DHT22;14521;48.148;-1.656;2024-01-11T14:53:56;18.10;72.80
26964;DHT22;14521;48.148;-1.656;2024-01-11T14:57:18;18.10;73.00
26964;DHT22;14521;48.148;-1.656;2024-01-11T15:00:42;18.10;72.90
26964;DHT22;14521;48.148;-1.656;2024-01-11T15:04:05;18.10;72.90
26964;DHT22;14521;48.148;-1.656;2024-01-11T15:07:27;18.20;72.90
26964;DHT22;14521;48.148;-1.656;2024-01-11T15:10:49;18.10;72.80
26964;DHT22;14521;48.148;-1.656;2024-01-11T15:14:30;18.10;72.60
26964;DHT22;14521;48.148;-1.656;2024-01-11T15:17:52;18.10;71.70
26964;DHT22;14521;48.148;-1.656;2024-01-11T15:21:15;18.10;72.00
26964;DHT22;14521;48.148;-1.656;2024-01-11T15:24:37;18.00;71.10
26964;DHT22;14521;48.148;-1.656;2024-01-11T15:28:00;18.00;72.60
26964;DHT22;14521;48.148;-1.656;2024-01-11T15:31:22;18.00;71.90
26964;DHT22;14521;48.148;-1.656;2024-01-11T15:34:45;18.00;71.80
26964;DHT22;14521;48.148;-1.656;2024-01-11T15:38:07;18.00;71.10
26964;DHT22;14521;48.148;-1.656;2024-01-11T15:41:29;18.00;71.40
26964;DHT22;14521;48.148;-1.656;2024-01-11T15:44:53;18.10;72.80
26964;DHT22;14521;48.148;-1.656;2024-01-11T15:48:15;18.10;73.30
26964;DHT22;14521;48.148;-1.656;2024-01-11T15:51:38;18.30;73.60
26964;DHT22;14521;48.148;-1.656;2024-01-11T15:55:00;18.30;73.50
26964;DHT22;14521;48.148;-1.656;2024-01-11T15:58:22;18.40;73.40
26964;DHT22;14521;48.148;-1.656;2024-01-11T16:01:44;18.40;73.30
26964;DHT22;14521;48.148;-1.656;2024-01-11T16:05:24;18.50;73.20
26964;DHT22;14521;48.148;-1.656;2024-01-11T16:08:47;18.60;73.30
26964;DHT22;14521;48.148;-1.656;2024-01-11T16:12:10;18.60;73.20
26964;DHT22;14521;48.148;-1.656;2024-01-11T16:15:32;18.70;73.00
26964;DHT22;14521;48.148;-1.656;2024-01-11T16:18:54;18.70;73.20
26964;DHT22;14521;48.148;-1.656;2024-01-11T16:22:17;18.70;73.30
26964;DHT22;14521;48.148;-1.656;2024-01-11T16:25:42;18.70;73.30
26964;DHT22;14521;48.148;-1.656;2024-01-11T16:29:04;18.70;73.40
26964;DHT22;14521;48.148;-1.656;2024-01-11T16:32:26;18.70;73.30
26964;DHT22;14521;48.148;-1.656;2024-01-11T16:35:49;18.70;72.90
26964;DHT22;14521;48.148;-1.656;2024-01-11T16:39:19;18.70;72.60
26964;DHT22;14521;48.148;-1.656;2024-01-11T16:42:42;18.70;74.20
26964;DHT22;14521;48.148;-1.656;2024-01-11T16:46:04;18.70;73.50
26964;DHT22;14521;48.148;-1.656;2024-01-11T16:49:26;18.70;73.50
26964;DHT22;14521;48.148;-1.656;2024-01-11T16:52:49;18.70;73.40
26964;DHT22;14521;48.148;-1.656;2024-01-11T16:56:11;18.70;73.50
26964;DHT22;14521;48.148;-1.656;2024-01-11T16:59:33;18.70;73.50
26964;DHT22;14521;48.148;-1.656;2024-01-11T17:02:57;18.70;73.50
26964;DHT22;14521;48.148;-1.656;2024-01-11T17:06:20;18.70;73.60
26964;DHT22;14521;48.148;-1.656;2024-01-11T17:09:43;18.60;72.60
26964;DHT22;14521;48.148;-1.656;2024-01-11T17:13:05;18.60;72.90
26964;DHT22;14521;48.148;-1.656;2024-01-11T17:16:27;18.60;73.40
26964;DHT22;14521;48.148;-1.656;2024-01-11T17:19:51;18.60;73.70
26964;DHT22;14521;48.148;-1.656;2024-01-11T17:23:13;18.60;73.50
26964;DHT22;14521;48.148;-1.656;2024-01-11T17:26:37;18.50;73.50
26964;DHT22;14521;48.148;-1.656;2024-01-11T17:29:59;18.50;73.50
26964;DHT22;14521;48.148;-1.656;2024-01-11T17:33:22;18.50;73.80
26964;DHT22;14521;48.148;-1.656;2024-01-11T17:36:45;18.50;73.70
26964;DHT22;14521;48.148;-1.656;2024-01-11T17:40:07;18.50;73.20
26964;DHT22;14521;48.148;-1.656;2024-01-11T17:43:30;18.60;71.40
26964;DHT22;14521;48.148;-1.656;2024-01-11T17:46:52;18.50;72.90
26964;DHT22;14521;48.148;-1.656;2024-01-11T17:50:15;18.70;73.50
26964;DHT22;14521;48.148;-1.656;2024-01-11T17:53:37;18.70;74.00
26964;DHT22;14521;48.148;-1.656;2024-01-11T17:56:59;18.60;74.00
26964;DHT22;14521;48.148;-1.656;2024-01-11T18:00:21;18.70;74.00
26964;DHT22;14521;48.148;-1.656;2024-01-11T18:03:44;18.60;73.90
26964;DHT22;14521;48.148;-1.656;2024-01-11T18:07:06;18.70;73.40
26964;DHT22;14521;48.148;-1.656;2024-01-11T18:10:28;18.70;74.40
26964;DHT22;14521;48.148;-1.656;2024-01-11T18:13:53;18.70;73.70
26964;DHT22;14521;48.148;-1.656;2024-01-11T18:17:16;18.80;73.50
26964;DHT22;14521;48.148;-1.656;2024-01-11T18:20:38;18.80;73.90
26964;DHT22;14521;48.148;-1.656;2024-01-11T18:24:00;18.80;73.80
26964;DHT22;14521;48.148;-1.656;2024-01-11T18:27:23;18.80;74.10
26964;DHT22;14521;48.148;-1.656;2024-01-11T18:30:45;18.80;74.30
26964;DHT22;14521;48.148;-1.656;2024-01-11T18:34:09;18.80;76.90
26964;DHT22;14521;48.148;-1.656;2024-01-11T18:37:31;18.70;77.30
26964;DHT22;14521;48.148;-1.656;2024-01-11T18:40:53;18.70;76.70
26964;DHT22;14521;48.148;-1.656;2024-01-11T18:44:15;18.80;72.80
26964;DHT22;14521;48.148;-1.656;2024-01-11T18:47:38;18.80;75.30
26964;DHT22;14521;48.148;-1.656;2024-01-11T18:51:00;18.80;79.20
26964;DHT22;14521;48.148;-1.656;2024-01-11T18:54:23;18.80;80.00
26964;DHT22;14521;48.148;-1.656;2024-01-11T18:57:45;18.80;77.90
26964;DHT22;14521;48.148;-1.656;2024-01-11T19:01:08;18.80;79.20
26964;DHT22;14521;48.148;-1.656;2024-01-11T19:04:31;18.80;77.90
26964;DHT22;14521;48.148;-1.656;2024-01-11T19:07:53;18.90;76.50
26964;DHT22;14521;48.148;-1.656;2024-01-11T19:11:15;18.80;79.10
26964;DHT22;14521;48.148;-1.656;2024-01-11T19:14:39;18.80;79.10
26964;DHT22;14521;48.148;-1.656;2024-01-11T19:18:02;18.80;79.00
26964;DHT22;14521;48.148;-1.656;2024-01-11T19:21:25;18.80;79.00
26964;DHT22;14521;48.148;-1.656;2024-01-11T19:24:48;18.80;79.00
26964;DHT22;14521;48.148;-1.656;2024-01-11T19:28:10;18.70;78.90
26964;DHT22;14521;48.148;-1.656;2024-01-11T19:31:32;18.70;78.80
26964;DHT22;14521;48.148;-1.656;2024-01-11T19:34:55;18.70;78.70
26964;DHT22;14521;48.148;-1.656;2024-01-11T19:38:17;18.70;78.70
26964;DHT22;14521;48.148;-1.656;2024-01-11T19:41:40;18.70;78.70
26964;DHT22;14521;48.148;-1.656;2024-01-11T19:45:02;18.70;78.40
26964;DHT22;14521;48.148;-1.656;2024-01-11T19:48:25;18.70;78.30
26964;DHT22;14521;48.148;-1.656;2024-01-11T19:51:47;18.70;78.10
26964;DHT22;14521;48.148;-1.656;2024-01-11T19:55:10;18.60;77.50
26964;DHT22;14521;48.148;-1.656;2024-01-11T19:58:33;18.60;77.50
26964;DHT22;14521;48.148;-1.656;2024-01-11T20:01:55;18.70;77.60
26964;DHT22;14521;48.148;-1.656;2024-01-11T20:05:19;18.70;78.00
26964;DHT22;14521;48.148;-1.656;2024-01-11T20:08:41;18.60;78.00
26964;DHT22;14521;48.148;-1.656;2024-01-11T20:12:04;18.70;77.50
26964;DHT22;14521;48.148;-1.656;2024-01-11T20:15:27;18.70;76.70
26964;DHT22;14521;48.148;-1.656;2024-01-11T20:18:49;18.60;77.70
26964;DHT22;14521;48.148;-1.656;2024-01-11T20:22:11;18.70;76.50
26964;DHT22;14521;48.148;-1.656;2024-01-11T20:25:33;18.70;77.00
26964;DHT22;14521;48.148;-1.656;2024-01-11T20:28:56;18.70;77.00
26964;DHT22;14521;48.148;-1.656;2024-01-11T20:32:18;18.70;77.50
26964;DHT22;14521;48.148;-1.656;2024-01-11T20:35:41;18.70;78.10
26964;DHT22;14521;48.148;-1.656;2024-01-11T20:39:03;18.70;78.30
26964;DHT22;14521;48.148;-1.656;2024-01-11T20:42:26;18.70;79.30
26964;DHT22;14521;48.148;-1.656;2024-01-11T20:45:48;18.70;79.30
26964;DHT22;14521;48.148;-1.656;2024-01-11T20:49:12;18.50;73.00
26964;DHT22;14521;48.148;-1.656;2024-01-11T20:52:34;18.00;71.30
26964;DHT22;14521;48.148;-1.656;2024-01-11T20:55:56;17.80;72.10
26964;DHT22;14521;48.148;-1.656;2024-01-11T20:59:18;17.70;72.90
26964;DHT22;14521;48.148;-1.656;2024-01-11T21:02:41;17.60;72.80